FKYS/NSI METAR and TAF weather

Enter ICAO airport designator
Station Type Date Time Source
FKYS METAR 2021/07/29 17:00 UTC NOAA

FKYS 291700Z 24005KT 9999 FEW020 27/19 Q1015 NOSIG


Station Type Date Time Source
FKYS Decoded METAR 2021/07/29 17:00 UTC NOAA

Yaounde, Cameroon (FKYS) 03-50N 011-31E 760M
Jul 29, 2021 - 01:00 PM EDT / 2021.07.29 1700 UTC
Wind: from the WSW (240 degrees) at 6 MPH (5 KT):0
Visibility: greater than 7 mile(s):0
Sky conditions: mostly clear
Temperature: 80 F (27 C)
Dew Point: 66 F (19 C)
Relative Humidity: 61%
Pressure (altimeter): 29.97 in. Hg (1015 hPa)
ob: FKYS 291700Z 24005KT 9999 FEW020 27/19 Q1015 NOSIG
cycle: 17

Station Type Date Time Source
FKYS TAF 2021/07/29 18:48 UTC NOAA

TAF TAF FKYS 291700Z 2918/3018 26005KT 8000 BKN006 PROB30 3004/3007 3000 BR
BECMG 3007/3009 BKN066

Example: see airport list